Cap FAP David Abenzur Rengifo International Airport
SPCL : now visible

Airfield :











YOU CAN JOIN US ON...

 
LOGIN :

Register | Disclaimer

   EN    FR    IT 

 









Legend :    VFR   Marginal VFR   IFR   Intensive IFR   Very Intensive IFR
Visi :
Ceiling :
>= 8 km
>= 3000ft
5 to 8 km
1000 to 3000 ft
1500m to 5 km
500 to 1000 ft
800 to 1500m
200 to 500 ft
< 800m
< 200 ft
Symbols :   Thunderstorms  Fog  Heavy snow  Heavy precipitations  Wind > 20 kt






- Airport Elevation : 513 ft
- IATA code : PCL


SPCL - Cap FAP David Abenzur Rengifo International

CURRENT METAR :
  • 202100Z 01007KT 9999 BKN025 32/24 Q1006 RMK BIRD HAZARD RWY 02/20 PP000

EXPIRED METARs :
  • 202000Z 02010KT 9999 BKN020 32/24 Q1007 RMK BIRD HAZARD RWY 02/20 PP000
  • 201900Z 02004KT 9999 SCT015 BKN100 31/24 Q1008 RMK BIRD HAZARD RWY 02/20 PP000

TAF SPCL
Valid from the 20 at 12:00 until the 21 at 12:00 UTC


201100Z 2012/2112 VRB02KT 9999 SCT020 SCT080 TX32/2019Z TN24/2111Z
BECMG 2016/2018 02003KT BKN020 BKN100
BECMG 2100/2102 VRB02KT SCT020 BKN080



MET'MAP, your aeronautical weather chart ! - Copyright ORBIFLY December 2007 - Disclaimer

ORBIFLY MET'MAP TEAM :

Programming & Development : Alexandra Zaïnal
Concept & original design : Baudouin d'Aumeries
Assistance for programming : Marc-Olivier Méhu
Technical & hardware support : Manuel Goepfert

Contact : metmap@orbifly.com




SOURCES & CREDITS :

   NOAA       Earth
Advisory